Forside
METAR-TAF:

METAR-TAF

Lufthavne :

Fort Chipewyan, Alberta, Canada

Breddekreds: 58-46N, længdekreds: 111-07W, højde: 232 m

Aktuelle vejr

Denne rapport blev lavet for 59 minutter siden, kl. 01:00 UTC
Vind 5 kt fra nord
Temperatur -22°C
Fugtighed 58%
Tryk 1036 hPa
Sigt: 14.5 km
skyfri

METAR: CYPY 240100Z AUTO 35005KT 9SM CLR M22/M28 A3059 RMK SLP393

Tid: 18:59 (01:59 UTC)

Vejrudsigter

Denne rapport blev lavet for 2 timer og 16 minutter siden, kl. 23:43 UTC
Foreløbig gælder fra 24 på 00 UTC til 24 på 07 UTC
Vind 10 kt fra nordvest
Sigt: 10 km
skyfri
ændring
fra 24 på 02 UTC til 24 på 04 UTC
Vind 5 kt fra nordvest

TAF: CYPY 232343Z 2400/2407 32010KT P6SM SKC BECMG 2402/2404 31005KT RMK FCST BASED ON AUTO OBS. NXT FCST WILL BE ISSUED AT 241245Z

Vejrobservationer og prognoser fra mere end 4000 lufthavne (METAR og TAF).

De gule og røde prikker repræsenterer de meteorologiske stationer.

Flyt musen over at se navnet på stationen.

Så klik over at se vejr observationer og prognoser.

At skifte det kort: Klik på de grønne knapper med et sort kors for at zoome ind; på den grønne knap med en bindestreg for at zoome ud; eller på de grønne pile for tilstødende kort.


METAR-TAF: